SBMQ/MCP METAR and TAF weather

Enter ICAO airport designator
Station Type Date Time Source
SBMQ METAR 2019/09/20 20:00 UTC NOAA

SBMQ 202000Z 06014KT CAVOK 32/23 Q1010


Station Type Date Time Source
SBMQ Decoded METAR 2019/09/20 20:00 UTC NOAA

Macapa, Brazil (SBMQ) 00-02N 050-03W
Sep 20, 2019 - 04:00 PM EDT / 2019.09.20 2000 UTC
Wind: from the ENE (060 degrees) at 16 MPH (14 KT):0
Visibility: greater than 7 mile(s):0
Temperature: 89 F (32 C)
Heat index: 96.8 F (36.0 C):1
Dew Point: 73 F (23 C)
Relative Humidity: 59%
Pressure (altimeter): 29.83 in. Hg (1010 hPa)
ob: SBMQ 202000Z 06014KT CAVOK 32/23 Q1010
cycle: 20

Station Type Date Time Source
SBMQ TAF 2019/09/20 18:33 UTC NOAA

TAF SBMQ 201558Z 2018/2118 06012KT 9999 SCT020TX34/2018Z TN25/2109Z
BECMG 2104/2106 36005KT
BECMG 2112/2114 07010KT
RMK PHQ

Example: see airport list